createdAt,value
2022-08-01T00:00:10.206Z,9.10
2022-08-01T00:02:41.594Z,9.68
2022-08-01T00:05:10.081Z,10.57
2022-08-01T00:07:37.957Z,9.98
2022-08-01T00:10:07.719Z,10.20
2022-08-01T00:12:34.831Z,9.80
2022-08-01T00:15:02.073Z,10.45
2022-08-01T00:17:29.031Z,10.48
2022-08-01T00:19:56.002Z,9.98
2022-08-01T00:22:22.939Z,10.55
2022-08-01T00:24:49.951Z,10.10
2022-08-01T00:27:17.137Z,10.65
2022-08-01T00:30:12.698Z,10.73
2022-08-01T00:32:34.229Z,10.80
2022-08-01T00:35:01.298Z,10.50
2022-08-01T00:37:28.259Z,9.88
2022-08-01T00:39:55.217Z,10.10
2022-08-01T00:42:22.368Z,9.98
2022-08-01T00:44:50.621Z,10.45
2022-08-01T00:47:17.778Z,10.23
2022-08-01T00:49:44.858Z,10.10
2022-08-01T00:52:12.242Z,10.30
2022-08-01T00:54:40.111Z,10.68
2022-08-01T00:57:09.905Z,9.80
2022-08-01T00:59:39.863Z,10.32
2022-08-01T01:02:15.589Z,10.27
2022-08-01T01:04:44.082Z,9.88
2022-08-01T01:07:33.676Z,9.60
2022-08-01T01:10:07.107Z,9.65
2022-08-01T01:12:38.795Z,9.13
2022-08-01T01:15:19.965Z,9.48
2022-08-01T01:18:11.218Z,10.32
2022-08-01T01:20:44.637Z,9.63
2022-08-01T01:23:39.388Z,9.48
2022-08-01T01:26:37.908Z,9.98
2022-08-01T01:29:58.653Z,9.40
2022-08-01T01:32:30.778Z,8.60
2022-08-01T01:34:59.900Z,9.38
2022-08-01T01:37:30.955Z,9.23
2022-08-01T01:39:59.643Z,9.05
2022-08-01T01:42:27.896Z,8.85
2022-08-01T01:44:56.198Z,8.88
2022-08-01T01:47:24.852Z,9.52
2022-08-01T01:49:53.928Z,8.77
2022-08-01T01:52:22.201Z,8.77
2022-08-01T01:54:51.838Z,8.32
2022-08-01T01:57:20.358Z,8.93
2022-08-01T01:59:49.251Z,8.38
2022-08-01T02:02:17.851Z,8.57
2022-08-01T02:04:47.998Z,8.40
2022-08-01T02:07:20.347Z,9.00
2022-08-01T02:09:48.292Z,8.13
2022-08-01T02:12:18.026Z,9.18
2022-08-01T02:14:47.228Z,8.65
2022-08-01T02:17:19.858Z,8.35
2022-08-01T02:19:47.578Z,8.40
2022-08-01T02:22:38.888Z,8.27
2022-08-01T02:25:25.100Z,8.43
2022-08-01T02:28:02.585Z,8.07
2022-08-01T02:30:34.971Z,8.30
2022-08-01T02:33:15.894Z,8.95
2022-08-01T02:36:30.994Z,8.05
2022-08-01T02:38:42.341Z,8.60
2022-08-01T02:41:14.457Z,8.38
2022-08-01T02:43:53.145Z,8.73
2022-08-01T02:46:30.931Z,8.63
2022-08-01T02:49:02.097Z,8.98
2022-08-01T02:51:32.208Z,9.35
2022-08-01T02:54:01.439Z,8.95
2022-08-01T02:56:36.113Z,8.70
2022-08-01T02:59:14.446Z,9.07
2022-08-01T03:01:44.594Z,9.00
2022-08-01T03:04:12.179Z,9.85
2022-08-01T03:06:42.390Z,9.73
2022-08-01T03:09:13.153Z,9.90
2022-08-01T03:11:44.301Z,9.63
2022-08-01T03:16:43.504Z,9.38
2022-08-01T03:21:42.092Z,8.48
2022-08-01T03:24:11.380Z,8.90
2022-08-01T03:26:41.157Z,8.02
2022-08-01T03:29:13.820Z,8.18
2022-08-01T03:31:44.689Z,8.10
2022-08-01T03:34:12.092Z,8.35
2022-08-01T03:36:47.690Z,7.78
2022-08-01T03:39:18.983Z,7.68
2022-08-01T03:41:57.061Z,7.55
2022-08-01T03:44:27.750Z,7.85
2022-08-01T03:47:03.972Z,7.70
2022-08-01T03:49:44.293Z,8.20
2022-08-01T03:52:12.659Z,7.45
2022-08-01T03:54:45.072Z,8.02
2022-08-01T03:57:34.776Z,8.05
2022-08-01T04:00:00.544Z,7.88
2022-08-01T04:02:31.131Z,7.93
2022-08-01T04:07:29.761Z,8.15
2022-08-01T04:09:56.688Z,7.40
2022-08-01T04:12:23.716Z,6.93
2022-08-01T04:14:51.068Z,6.55
2022-08-01T04:17:18.717Z,6.75
2022-08-01T04:19:46.090Z,7.18
2022-08-01T04:22:15.658Z,7.18
2022-08-01T04:24:54.692Z,6.57
2022-08-01T04:27:50.292Z,6.07
2022-08-01T04:30:18.128Z,6.47
2022-08-01T04:32:49.307Z,6.10
2022-08-01T04:35:22.571Z,5.80
2022-08-01T04:38:07.852Z,6.40
2022-08-01T04:40:37.273Z,6.65
2022-08-01T04:43:04.772Z,9.95
2022-08-01T04:45:34.030Z,6.53
2022-08-01T04:48:01.437Z,6.40
2022-08-01T04:50:29.073Z,6.90
2022-08-01T04:52:56.213Z,6.70
2022-08-01T04:55:23.155Z,6.60
2022-08-01T04:57:50.252Z,6.50
2022-08-01T05:03:04.181Z,6.88
2022-08-01T05:05:31.977Z,7.32
2022-08-01T05:07:59.281Z,7.13
2022-08-01T05:10:27.290Z,6.30
2022-08-01T05:12:55.160Z,6.18
2022-08-01T05:15:22.503Z,6.25
2022-08-01T05:17:49.559Z,5.78
2022-08-01T05:20:16.607Z,5.85
2022-08-01T05:22:43.938Z,5.97
2022-08-01T05:25:11.071Z,5.45
2022-08-01T05:27:42.940Z,5.47
2022-08-01T05:30:11.235Z,5.35
2022-08-01T05:32:39.270Z,5.63
2022-08-01T05:35:06.951Z,5.47
2022-08-01T05:37:34.021Z,5.55
2022-08-01T05:40:01.379Z,4.90
2022-08-01T05:42:28.349Z,4.65
2022-08-01T05:44:55.280Z,4.38
2022-08-01T05:47:22.240Z,4.78
2022-08-01T05:49:49.259Z,4.30
2022-08-01T05:52:16.223Z,4.43
2022-08-01T05:54:43.221Z,4.15
2022-08-01T05:57:11.148Z,4.72
2022-08-01T05:59:39.347Z,4.97
2022-08-01T06:02:06.491Z,4.57
2022-08-01T06:04:33.753Z,4.43
2022-08-01T06:07:00.927Z,4.05
2022-08-01T06:09:28.009Z,4.10
2022-08-01T06:11:54.952Z,4.53
2022-08-01T06:14:21.997Z,4.18
2022-08-01T06:16:48.916Z,4.80
2022-08-01T06:19:15.860Z,4.60
2022-08-01T06:21:42.893Z,4.22
2022-08-01T06:24:10.349Z,3.90
2022-08-01T06:26:38.439Z,4.32
2022-08-01T06:29:05.492Z,4.38
2022-08-01T06:31:33.947Z,3.90
2022-08-01T06:34:01.612Z,3.72
2022-08-01T06:36:28.762Z,4.00
2022-08-01T06:38:55.912Z,3.72
2022-08-01T06:41:22.986Z,3.60
2022-08-01T06:43:50.089Z,3.67
2022-08-01T06:46:17.435Z,3.75
2022-08-01T06:48:44.588Z,3.72
2022-08-01T06:51:16.967Z,3.20
2022-08-01T06:53:45.026Z,3.67
2022-08-01T06:56:12.342Z,3.45
2022-08-01T06:58:39.331Z,3.10
2022-08-01T07:01:09.377Z,3.55
2022-08-01T07:03:54.527Z,2.90
2022-08-01T07:06:26.019Z,2.90
2022-08-01T07:08:56.598Z,3.20
2022-08-01T07:11:24.991Z,3.22
2022-08-01T07:13:52.254Z,3.03
2022-08-01T07:16:19.516Z,3.28
2022-08-01T07:18:46.499Z,3.00
2022-08-01T07:21:38.190Z,2.95
2022-08-01T07:24:00.612Z,2.92
2022-08-01T07:26:28.565Z,3.70
2022-08-01T07:28:55.788Z,3.05
2022-08-01T07:31:22.749Z,2.90
2022-08-01T07:33:50.231Z,3.10
2022-08-01T07:36:20.357Z,2.72
2022-08-01T07:38:47.806Z,2.80
2022-08-01T07:41:15.078Z,2.97
2022-08-01T07:43:49.295Z,3.33
2022-08-01T07:46:20.266Z,3.08
2022-08-01T07:48:47.477Z,3.17
2022-08-01T07:51:14.632Z,3.15
2022-08-01T07:53:41.637Z,3.13
2022-08-01T07:56:08.726Z,3.00
2022-08-01T07:58:35.842Z,3.10
2022-08-01T08:01:03.477Z,3.10
2022-08-01T08:03:32.561Z,2.78
2022-08-01T08:06:00.406Z,3.15
2022-08-01T08:08:27.892Z,5.35
2022-08-01T08:10:57.883Z,2.80
2022-08-01T08:13:31.321Z,3.15
2022-08-01T08:15:59.733Z,2.90
2022-08-01T08:18:27.217Z,3.03
2022-08-01T08:20:54.364Z,3.17
2022-08-01T08:23:42.088Z,3.05
2022-08-01T08:26:12.074Z,3.30
2022-08-01T08:28:40.450Z,3.00
2022-08-01T08:31:25.585Z,3.03
2022-08-01T08:33:57.262Z,2.83
2022-08-01T08:36:31.012Z,3.22
2022-08-01T08:39:03.068Z,2.80
2022-08-01T08:41:37.922Z,2.60
2022-08-01T08:44:10.752Z,2.88
2022-08-01T08:46:43.867Z,2.80
2022-08-01T08:49:13.200Z,2.63
2022-08-01T08:51:42.577Z,3.00
2022-08-01T08:54:13.929Z,2.80
2022-08-01T08:56:41.752Z,2.40
2022-08-01T08:59:09.094Z,2.50
2022-08-01T09:01:36.418Z,2.30
2022-08-01T09:04:05.102Z,2.28
2022-08-01T09:06:33.672Z,2.30
2022-08-01T09:09:00.916Z,2.17
2022-08-01T09:11:28.197Z,2.30
2022-08-01T09:14:16.105Z,2.00
2022-08-01T09:16:48.781Z,1.73
2022-08-01T09:19:39.949Z,1.80
2022-08-01T09:22:09.755Z,1.70
2022-08-01T09:24:38.396Z,2.10
2022-08-01T09:27:22.681Z,1.85
2022-08-01T09:30:01.154Z,2.03
2022-08-01T09:32:35.702Z,1.90
2022-08-01T09:35:29.833Z,1.70
2022-08-01T09:38:18.837Z,2.00
2022-08-01T09:41:03.702Z,1.85
2022-08-01T09:43:32.864Z,2.17
2022-08-01T09:46:01.235Z,2.20
2022-08-01T09:48:30.253Z,1.90
2022-08-01T09:51:04.867Z,1.80
2022-08-01T09:53:51.853Z,2.05
2022-08-01T09:56:21.525Z,1.92
2022-08-01T09:59:01.064Z,2.03
2022-08-01T10:02:40.521Z,1.83
2022-08-01T10:05:10.779Z,1.90
2022-08-01T10:08:07.790Z,1.90
2022-08-01T10:11:00.198Z,1.80
2022-08-01T10:13:36.531Z,1.67
2022-08-01T10:16:07.809Z,1.70
2022-08-01T10:18:43.132Z,1.70
2022-08-01T10:21:18.272Z,1.88
2022-08-01T10:24:23.922Z,1.90
2022-08-01T10:27:12.789Z,1.85
2022-08-01T10:30:05.816Z,1.90
2022-08-01T10:32:50.589Z,2.58
2022-08-01T10:35:45.992Z,1.83
2022-08-01T10:38:10.921Z,2.10
2022-08-01T10:40:42.716Z,2.13
2022-08-01T10:43:21.591Z,1.90
2022-08-01T10:45:51.552Z,2.05
2022-08-01T10:48:36.837Z,2.10
2022-08-01T10:51:18.505Z,1.90
2022-08-01T10:54:09.785Z,1.90
2022-08-01T10:56:49.944Z,2.10
2022-08-01T10:59:50.470Z,2.20
2022-08-01T11:02:32.082Z,2.40
2022-08-01T11:05:04.416Z,2.33
2022-08-01T11:08:02.516Z,2.20
2022-08-01T11:10:39.783Z,2.75
2022-08-01T11:13:13.749Z,2.38
2022-08-01T11:15:49.947Z,2.35
2022-08-01T11:18:32.924Z,2.25
2022-08-01T11:21:57.178Z,2.20
2022-08-01T11:23:51.092Z,2.28
2022-08-01T11:26:18.778Z,2.47
2022-08-01T11:29:20.575Z,2.50
2022-08-01T11:31:48.010Z,2.45
2022-08-01T11:34:15.859Z,2.03
2022-08-01T11:36:58.461Z,2.15
2022-08-01T11:39:38.975Z,2.17
2022-08-01T11:42:21.054Z,2.65
2022-08-01T11:44:52.610Z,6.35
2022-08-01T11:47:21.257Z,3.05
2022-08-01T11:49:56.019Z,2.90
2022-08-01T11:52:37.422Z,3.00
2022-08-01T11:55:11.523Z,3.20
2022-08-01T11:57:39.744Z,2.80
2022-08-01T12:00:15.111Z,2.97
2022-08-01T12:02:45.315Z,2.70
2022-08-01T12:05:15.903Z,19.33
2022-08-01T12:10:14.898Z,4.13
2022-08-01T12:12:49.903Z,2.80
2022-08-01T12:15:18.012Z,2.85
2022-08-01T12:17:57.516Z,2.80
2022-08-01T12:20:30.203Z,5.63
2022-08-01T12:23:02.806Z,2.70
2022-08-01T12:25:30.740Z,2.70
2022-08-01T12:28:19.803Z,2.60
2022-08-01T12:30:50.205Z,2.60
2022-08-01T12:35:48.574Z,2.70
2022-08-01T12:38:23.606Z,2.60
2022-08-01T12:40:53.147Z,2.35
2022-08-01T12:43:27.177Z,2.60
2022-08-01T12:45:57.767Z,2.58
2022-08-01T12:48:26.510Z,2.50
2022-08-01T12:50:54.462Z,2.28
2022-08-01T12:53:22.658Z,2.42
2022-08-01T12:55:58.951Z,2.50
2022-08-01T12:58:35.931Z,2.60
2022-08-01T13:01:08.753Z,2.85
2022-08-01T13:03:36.230Z,2.53
2022-08-01T13:06:12.487Z,2.28
2022-08-01T13:08:39.717Z,5.18
2022-08-01T13:11:10.963Z,2.85
2022-08-01T13:13:51.698Z,2.40
2022-08-01T13:16:31.082Z,2.30
2022-08-01T13:19:08.850Z,2.60
2022-08-01T13:21:54.502Z,2.30
2022-08-01T13:24:29.911Z,2.35
2022-08-01T13:27:06.144Z,2.20
2022-08-01T13:29:39.621Z,2.40
2022-08-01T13:32:29.487Z,2.38
2022-08-01T13:35:09.442Z,2.08
2022-08-01T13:37:38.445Z,2.20
2022-08-01T13:40:07.568Z,2.47
2022-08-01T13:42:35.079Z,2.03
2022-08-01T13:45:03.014Z,2.10
2022-08-01T13:47:32.616Z,2.28
2022-08-01T13:50:03.608Z,1.90
2022-08-01T13:52:31.921Z,2.00
2022-08-01T13:54:59.652Z,2.05
2022-08-01T13:57:26.739Z,2.00
2022-08-01T14:00:07.123Z,1.75
2022-08-01T14:02:34.184Z,1.80
2022-08-01T14:05:04.813Z,2.30
2022-08-01T14:07:31.792Z,2.30
2022-08-01T14:10:18.102Z,2.13
2022-08-01T14:12:46.562Z,2.30
2022-08-01T14:15:15.033Z,1.55
2022-08-01T14:18:02.147Z,1.70
2022-08-01T14:20:29.731Z,1.85
2022-08-01T14:23:00.039Z,1.60
2022-08-01T14:26:01.668Z,1.60
2022-08-01T14:28:14.016Z,2.05
2022-08-01T14:30:43.765Z,1.50
2022-08-01T14:33:14.790Z,1.42
2022-08-01T14:36:01.588Z,1.50
2022-08-01T14:38:33.408Z,2.10
2022-08-01T14:41:01.867Z,2.30
2022-08-01T14:43:33.211Z,2.40
2022-08-01T14:46:01.760Z,2.28
2022-08-01T14:48:30.182Z,2.30
2022-08-01T14:50:58.293Z,2.50
2022-08-01T14:53:25.414Z,2.22
2022-08-01T14:55:52.448Z,2.63
2022-08-01T14:58:19.556Z,2.60
2022-08-01T15:00:46.755Z,2.70
2022-08-01T15:03:14.374Z,2.20
2022-08-01T15:05:41.476Z,2.60
2022-08-01T15:08:08.844Z,2.60
2022-08-01T15:10:36.039Z,3.10
2022-08-01T15:13:03.163Z,9.40
2022-08-01T15:15:30.425Z,2.40
2022-08-01T15:17:57.867Z,2.80
2022-08-01T15:20:25.779Z,3.20
2022-08-01T15:22:54.022Z,2.40
2022-08-01T15:25:21.701Z,2.50
2022-08-01T15:27:48.966Z,2.22
2022-08-01T15:30:16.322Z,2.40
2022-08-01T15:32:43.576Z,2.40
2022-08-01T15:35:11.481Z,2.30
2022-08-01T15:37:42.861Z,2.70
2022-08-01T15:40:11.587Z,2.22
2022-08-01T15:42:38.733Z,2.42
2022-08-01T15:45:06.369Z,2.35
2022-08-01T15:47:34.139Z,2.42
2022-08-01T15:50:03.039Z,2.60
2022-08-01T15:52:32.370Z,2.42
2022-08-01T15:54:59.958Z,2.30
2022-08-01T15:57:27.479Z,2.20
2022-08-01T15:59:54.621Z,2.40
2022-08-01T16:02:21.864Z,2.45
2022-08-01T16:04:48.893Z,2.58
2022-08-01T16:07:16.069Z,2.42
2022-08-01T16:09:43.318Z,2.17
2022-08-01T16:12:10.446Z,2.50
2022-08-01T16:14:37.639Z,2.40
2022-08-01T16:17:04.896Z,2.88
2022-08-01T16:19:32.028Z,2.40
2022-08-01T16:21:59.760Z,2.40
2022-08-01T16:24:31.332Z,2.20
2022-08-01T16:26:57.986Z,2.50
2022-08-01T16:29:25.639Z,2.53
2022-08-01T16:32:10.155Z,2.40
2022-08-01T16:42:16.301Z,2.60
2022-08-01T16:44:44.763Z,2.60
2022-08-01T16:47:11.508Z,2.65
2022-08-01T16:49:38.238Z,2.63
2022-08-01T16:52:05.412Z,2.30
2022-08-01T16:54:32.121Z,2.47
2022-08-01T16:57:08.066Z,6.25
2022-08-01T16:59:41.197Z,2.45
2022-08-01T17:02:09.829Z,3.20
2022-08-01T17:04:36.677Z,5.45
2022-08-01T17:07:03.646Z,3.40
2022-08-01T17:09:30.318Z,3.03
2022-08-01T17:11:56.872Z,3.00
2022-08-01T17:14:23.671Z,2.63
2022-08-01T17:16:50.394Z,2.67
2022-08-01T17:19:16.938Z,2.83
2022-08-01T17:21:43.437Z,3.33
2022-08-01T17:24:18.784Z,4.72
2022-08-01T17:26:45.302Z,4.65
2022-08-01T17:29:11.757Z,2.60
2022-08-01T17:31:38.607Z,2.75
2022-08-01T17:34:05.196Z,6.15
2022-08-01T17:36:31.844Z,2.85
2022-08-01T17:38:59.550Z,2.70
2022-08-01T17:41:26.295Z,3.22
2022-08-01T17:43:53.023Z,3.17
2022-08-01T17:46:19.622Z,3.38
2022-08-01T17:48:46.727Z,3.03
2022-08-01T17:51:13.287Z,2.90
2022-08-01T17:53:55.569Z,3.35
2022-08-01T17:56:25.260Z,4.00
2022-08-01T17:58:52.379Z,3.30
2022-08-01T18:01:20.024Z,3.50
2022-08-01T18:03:47.048Z,2.70
2022-08-01T18:06:17.518Z,2.92
2022-08-01T18:08:46.787Z,2.85
2022-08-01T18:11:15.082Z,2.88
2022-08-01T18:13:44.817Z,3.70
2022-08-01T18:16:13.248Z,3.42
2022-08-01T18:18:41.918Z,3.72
2022-08-01T18:21:09.173Z,2.80
2022-08-01T18:23:36.093Z,3.60
2022-08-01T18:26:06.873Z,3.80
2022-08-01T18:28:41.622Z,4.30
2022-08-01T18:31:16.643Z,3.60
2022-08-01T18:33:43.420Z,3.30
2022-08-01T18:36:15.332Z,2.83
2022-08-01T18:38:56.686Z,3.40
2022-08-01T18:41:23.461Z,2.78
2022-08-01T18:43:50.273Z,3.58
2022-08-01T18:46:16.885Z,5.10
2022-08-01T18:48:43.639Z,3.35
2022-08-01T18:51:11.679Z,3.95
2022-08-01T18:53:39.663Z,3.13
2022-08-01T18:58:39.929Z,2.60
2022-08-01T19:01:06.687Z,3.67
2022-08-01T19:03:33.270Z,4.53
2022-08-01T19:05:59.830Z,3.00
2022-08-01T19:08:29.312Z,3.90
2022-08-01T19:10:55.841Z,5.40
2022-08-01T19:13:22.526Z,3.65
2022-08-01T19:15:48.996Z,3.28
2022-08-01T19:18:15.765Z,3.10
2022-08-01T19:20:44.603Z,3.00
2022-08-01T19:23:37.759Z,3.60
2022-08-01T19:26:09.619Z,3.63
2022-08-01T19:28:46.816Z,4.07
2022-08-01T19:31:20.703Z,3.95
2022-08-01T19:33:47.489Z,4.13
2022-08-01T19:36:17.201Z,4.60
2022-08-01T19:38:44.823Z,5.72
2022-08-01T19:41:13.760Z,4.78
2022-08-01T19:43:46.172Z,4.80
2022-08-01T19:46:17.775Z,4.40
2022-08-01T19:48:48.522Z,4.55
2022-08-01T19:51:19.115Z,4.85
2022-08-01T19:53:55.555Z,5.10
2022-08-01T19:56:25.713Z,3.42
2022-08-01T19:58:59.962Z,4.07
2022-08-01T20:01:27.945Z,3.67
2022-08-01T20:03:56.007Z,3.83
2022-08-01T20:06:24.627Z,4.60
2022-08-01T20:08:54.644Z,4.97
2022-08-01T20:11:22.264Z,3.95
2022-08-01T20:13:50.781Z,4.20
2022-08-01T20:16:17.841Z,14.90
2022-08-01T20:18:45.001Z,4.70
2022-08-01T20:21:12.829Z,7.55
2022-08-01T20:23:41.372Z,3.65
2022-08-01T20:26:09.650Z,4.20
2022-08-01T20:28:40.131Z,3.35
2022-08-01T20:31:08.386Z,3.90
2022-08-01T20:33:40.160Z,3.33
2022-08-01T20:36:12.203Z,4.18
2022-08-01T20:38:56.532Z,3.70
2022-08-01T20:41:27.616Z,4.03
2022-08-01T20:43:55.924Z,3.55
2022-08-01T20:46:26.965Z,3.45
2022-08-01T20:48:55.591Z,3.78
2022-08-01T20:51:27.406Z,3.83
2022-08-01T20:53:55.321Z,4.10
2022-08-01T20:56:38.542Z,4.05
2022-08-01T20:59:55.885Z,3.92
2022-08-01T21:02:41.602Z,3.63
2022-08-01T21:05:10.990Z,3.72
2022-08-01T21:07:53.157Z,6.68
2022-08-01T21:10:22.681Z,5.30
2022-08-01T21:12:52.174Z,4.13
2022-08-01T21:15:29.858Z,4.43
2022-08-01T21:18:02.560Z,4.70
2022-08-01T21:20:32.350Z,4.53
2022-08-01T21:23:09.102Z,4.05
2022-08-01T21:25:35.971Z,4.10
2022-08-01T21:28:03.349Z,4.22
2022-08-01T21:30:31.327Z,4.15
2022-08-01T21:32:58.313Z,3.75
2022-08-01T21:35:26.366Z,4.18
2022-08-01T21:37:59.360Z,4.65
2022-08-01T21:40:25.934Z,4.20
2022-08-01T21:42:54.271Z,4.55
2022-08-01T21:45:24.231Z,4.50
2022-08-01T21:47:51.504Z,4.47
2022-08-01T21:50:17.999Z,4.53
2022-08-01T21:52:48.984Z,4.57
2022-08-01T21:55:35.102Z,4.70
2022-08-01T21:58:31.588Z,4.55
2022-08-01T22:01:21.686Z,4.82
2022-08-01T22:03:51.937Z,4.43
2022-08-01T22:06:20.806Z,4.25
2022-08-01T22:08:52.471Z,3.90
2022-08-01T22:11:22.071Z,4.00
2022-08-01T22:13:54.790Z,3.88
2022-08-01T22:16:21.975Z,4.38
2022-08-01T22:18:48.863Z,3.95
2022-08-01T22:21:17.594Z,4.03
2022-08-01T22:23:44.845Z,4.07
2022-08-01T22:26:12.159Z,4.32
2022-08-01T22:28:40.163Z,4.07
2022-08-01T22:31:07.173Z,4.60
2022-08-01T22:33:39.019Z,4.22
2022-08-01T22:36:06.878Z,4.68
2022-08-01T22:38:33.918Z,5.28
2022-08-01T22:41:05.997Z,4.82
2022-08-01T22:43:54.233Z,4.60
2022-08-01T22:46:32.677Z,7.22
2022-08-01T22:49:15.837Z,5.25
2022-08-01T22:51:55.682Z,4.00
2022-08-01T22:54:29.161Z,4.57
2022-08-01T22:56:57.105Z,4.63
2022-08-01T22:59:48.855Z,4.95
2022-08-01T23:02:17.355Z,4.43
2022-08-01T23:04:47.517Z,3.88
2022-08-01T23:07:20.451Z,4.15
2022-08-01T23:09:53.822Z,5.00
2022-08-01T23:12:24.270Z,4.25
2022-08-01T23:14:53.609Z,4.45
2022-08-01T23:17:27.146Z,4.32
2022-08-01T23:19:57.891Z,4.90
2022-08-01T23:22:27.981Z,4.82
2022-08-01T23:25:04.232Z,4.72
2022-08-01T23:27:51.255Z,4.43
2022-08-01T23:30:30.618Z,4.85
2022-08-01T23:32:57.918Z,4.93
2022-08-01T23:35:25.409Z,4.60
2022-08-01T23:37:52.915Z,4.70
2022-08-01T23:40:20.073Z,5.40
2022-08-01T23:42:47.087Z,4.57
2022-08-01T23:45:14.182Z,5.22
2022-08-01T23:47:40.568Z,5.70
2022-08-01T23:50:08.086Z,4.90
2022-08-01T23:52:37.920Z,4.60
2022-08-01T23:55:16.969Z,4.78
2022-08-01T23:57:44.319Z,4.60
